createdAt,value
2017-01-31T00:00:01.604Z,3.13
2017-01-31T00:01:02.316Z,3.03
2017-01-31T00:02:02.161Z,3.01
2017-01-31T00:03:01.186Z,3.1
2017-01-31T00:04:01.072Z,3.04
2017-01-31T00:05:01.363Z,3.04
2017-01-31T00:06:01.553Z,3.03
2017-01-31T00:07:01.150Z,2.95
2017-01-31T00:08:01.656Z,3.01
2017-01-31T00:09:01.759Z,3
2017-01-31T00:10:01.072Z,2.97
2017-01-31T00:11:01.990Z,2.98
2017-01-31T00:12:01.262Z,2.95
2017-01-31T00:13:00.669Z,2.92
2017-01-31T00:14:02.224Z,2.93
2017-01-31T00:15:00.793Z,2.93
2017-01-31T00:16:01.112Z,2.92
2017-01-31T00:17:02.387Z,2.97
2017-01-31T00:18:02.176Z,2.97
2017-01-31T00:19:01.199Z,2.86
2017-01-31T00:20:01.156Z,2.86
2017-01-31T00:21:01.675Z,2.82
2017-01-31T00:22:01.485Z,2.95
2017-01-31T00:23:01.884Z,2.85
2017-01-31T00:24:01.755Z,2.8
2017-01-31T00:25:01.426Z,2.86
2017-01-31T00:26:01.333Z,2.8
2017-01-31T00:27:01.456Z,2.83
2017-01-31T00:28:00.962Z,2.83
2017-01-31T00:29:02.463Z,2.82
2017-01-31T00:30:02.020Z,2.85
2017-01-31T00:31:01.282Z,2.77
2017-01-31T00:32:02.587Z,2.8
2017-01-31T00:33:01.332Z,2.8
2017-01-31T00:34:02.305Z,2.75
2017-01-31T00:35:01.194Z,2.82
2017-01-31T00:36:02.030Z,2.85
2017-01-31T00:37:01.345Z,2.8
2017-01-31T00:38:01.977Z,2.83
2017-01-31T00:39:03.099Z,2.77
2017-01-31T00:40:01.594Z,2.75
2017-01-31T00:41:01.159Z,2.72
2017-01-31T00:42:01.835Z,2.77
2017-01-31T00:43:00.972Z,2.71
2017-01-31T00:44:02.795Z,2.77
2017-01-31T00:45:01.810Z,2.77
2017-01-31T00:46:03.237Z,2.69
2017-01-31T00:47:01.808Z,2.71
2017-01-31T00:48:01.640Z,2.72
2017-01-31T00:49:02.686Z,2.67
2017-01-31T00:50:02.150Z,2.6
2017-01-31T00:51:01.995Z,2.61
2017-01-31T00:52:01.567Z,2.6
2017-01-31T00:53:01.594Z,2.67
2017-01-31T00:54:01.968Z,2.61
2017-01-31T00:55:01.611Z,2.62
2017-01-31T00:56:02.086Z,2.57
2017-01-31T00:57:01.460Z,2.54
2017-01-31T00:58:01.894Z,2.61
2017-01-31T00:59:03.163Z,2.68
2017-01-31T01:00:02.090Z,2.61
2017-01-31T01:01:02.266Z,2.61
2017-01-31T01:02:02.283Z,2.54
2017-01-31T01:03:02.242Z,2.51
2017-01-31T01:04:03.290Z,2.5
2017-01-31T01:05:01.662Z,2.56
2017-01-31T01:06:02.955Z,2.47
2017-01-31T01:07:01.919Z,2.53
2017-01-31T01:08:01.510Z,2.53
2017-01-31T01:09:02.439Z,2.47
2017-01-31T01:10:02.367Z,2.54
2017-01-31T01:11:03.028Z,2.54
2017-01-31T01:12:02.206Z,2.5
2017-01-31T01:13:03.388Z,2.47
2017-01-31T01:14:02.571Z,2.44
2017-01-31T01:15:01.688Z,2.47
2017-01-31T01:16:02.185Z,2.5
2017-01-31T01:17:02.480Z,2.57
2017-01-31T01:18:02.834Z,2.54
2017-01-31T01:19:01.938Z,2.53
2017-01-31T01:20:03.513Z,2.46
2017-01-31T01:21:02.555Z,2.49
2017-01-31T01:22:02.053Z,2.53
2017-01-31T01:23:02.808Z,2.46
2017-01-31T01:24:03.508Z,2.46
2017-01-31T01:25:02.739Z,2.51
2017-01-31T01:26:01.939Z,2.47
2017-01-31T01:27:02.415Z,2.49
2017-01-31T01:28:01.857Z,2.51
2017-01-31T01:29:03.136Z,2.5
2017-01-31T01:30:03.221Z,2.47
2017-01-31T01:31:02.927Z,2.53
2017-01-31T01:32:02.312Z,2.46
2017-01-31T01:33:02.598Z,2.43
2017-01-31T01:34:02.144Z,2.46
2017-01-31T01:35:03.582Z,2.42
2017-01-31T01:36:02.382Z,2.47
2017-01-31T01:37:02.331Z,2.42
2017-01-31T01:38:02.245Z,2.44
2017-01-31T01:39:02.991Z,2.42
2017-01-31T01:40:02.277Z,2.43
2017-01-31T01:41:02.468Z,2.39
2017-01-31T01:42:03.916Z,2.44
2017-01-31T01:43:01.612Z,2.36
2017-01-31T01:44:01.423Z,2.42
2017-01-31T01:45:03.410Z,2.36
2017-01-31T01:46:04.179Z,2.31
2017-01-31T01:47:02.900Z,2.38
2017-01-31T01:48:03.209Z,2.31
2017-01-31T01:49:03.339Z,2.35
2017-01-31T01:50:02.778Z,2.32
2017-01-31T01:51:02.435Z,2.36
2017-01-31T01:52:02.912Z,2.36
2017-01-31T01:53:02.145Z,2.36
2017-01-31T01:54:02.353Z,2.35
2017-01-31T01:55:02.218Z,2.32
2017-01-31T01:56:03.145Z,2.36
2017-01-31T01:57:03.602Z,2.31
2017-01-31T01:58:03.571Z,2.29
2017-01-31T01:59:02.040Z,2.32
2017-01-31T02:00:04.095Z,2.24
2017-01-31T02:01:02.996Z,2.29
2017-01-31T02:02:02.817Z,2.25
2017-01-31T02:03:02.972Z,2.25
2017-01-31T02:04:03.179Z,2.31
2017-01-31T02:05:02.998Z,2.31
2017-01-31T02:06:03.912Z,2.29
2017-01-31T02:07:03.017Z,2.2
2017-01-31T02:08:02.149Z,2.29
2017-01-31T02:09:03.087Z,2.29
2017-01-31T02:10:02.509Z,2.25
2017-01-31T02:11:02.854Z,2.24
2017-01-31T02:12:02.723Z,2.24
2017-01-31T02:13:03.297Z,2.28
2017-01-31T02:14:02.845Z,2.2
2017-01-31T02:15:03.905Z,2.24
2017-01-31T02:16:02.902Z,2.18
2017-01-31T02:17:03.124Z,2.22
2017-01-31T02:18:01.832Z,2.22
2017-01-31T02:19:02.444Z,2.22
2017-01-31T02:20:03.444Z,2.15
2017-01-31T02:21:02.698Z,2.13
2017-01-31T02:22:03.656Z,2.13
2017-01-31T02:23:03.203Z,2.17
2017-01-31T02:24:03.687Z,2.22
2017-01-31T02:25:02.636Z,2.2
2017-01-31T02:26:03.868Z,2.15
2017-01-31T02:27:03.700Z,2.18
2017-01-31T02:28:02.809Z,2.14
2017-01-31T02:29:03.182Z,2.17
2017-01-31T02:30:03.091Z,2.13
2017-01-31T02:31:03.553Z,2.18
2017-01-31T02:32:03.779Z,2.17
2017-01-31T02:33:03.636Z,2.11
2017-01-31T02:34:02.956Z,2.22
2017-01-31T02:35:04.198Z,2.18
2017-01-31T02:36:04.073Z,2.24
2017-01-31T02:37:03.234Z,2.18
2017-01-31T02:38:03.678Z,2.2
2017-01-31T02:39:03.059Z,2.2
2017-01-31T02:40:03.321Z,2.17
2017-01-31T02:41:03.407Z,2.2
2017-01-31T02:42:03.027Z,2.15
2017-01-31T02:43:03.713Z,2.17
2017-01-31T02:44:03.762Z,2.18
2017-01-31T02:45:02.909Z,2.2
2017-01-31T02:46:03.373Z,2.22
2017-01-31T02:47:03.549Z,2.17
2017-01-31T02:48:05.032Z,2.17
2017-01-31T02:49:03.640Z,2.2
2017-01-31T02:50:03.645Z,2.22
2017-01-31T02:51:03.567Z,2.07
2017-01-31T02:52:03.449Z,2.1
2017-01-31T02:53:02.857Z,2.17
2017-01-31T02:54:03.398Z,2.11
2017-01-31T02:55:02.999Z,2.13
2017-01-31T02:56:03.523Z,2.1
2017-01-31T02:57:03.301Z,2.08
2017-01-31T02:58:03.387Z,2.13
2017-01-31T02:59:03.003Z,2.1
2017-01-31T03:00:03.204Z,2.08
2017-01-31T03:01:03.572Z,2.15
2017-01-31T03:02:03.065Z,2.07
2017-01-31T03:03:03.579Z,2.1
2017-01-31T03:04:04.838Z,2.1
2017-01-31T03:05:03.967Z,2.07
2017-01-31T03:06:03.749Z,2.1
2017-01-31T03:07:04.695Z,2.14
2017-01-31T03:08:02.944Z,2.14
2017-01-31T03:09:04.177Z,2.17
2017-01-31T03:10:03.383Z,2.08
2017-01-31T03:11:03.196Z,2.1
2017-01-31T03:12:04.112Z,2.14
2017-01-31T03:13:03.116Z,2.14
2017-01-31T03:14:03.898Z,2.07
2017-01-31T03:15:03.255Z,2.1
2017-01-31T03:16:03.112Z,2.04
2017-01-31T03:17:03.578Z,2
2017-01-31T03:18:04.124Z,2.17
2017-01-31T03:19:03.844Z,2
2017-01-31T03:20:03.740Z,2.04
2017-01-31T03:21:04.235Z,2
2017-01-31T03:22:03.951Z,2.02
2017-01-31T03:23:04.033Z,1.97
2017-01-31T03:24:03.016Z,2.02
2017-01-31T03:25:04.210Z,2.04
2017-01-31T03:26:04.127Z,2.04
2017-01-31T03:27:03.998Z,2.02
2017-01-31T03:28:04.583Z,2.07
2017-01-31T03:29:04.220Z,2
2017-01-31T03:30:03.755Z,2
2017-01-31T03:31:04.066Z,2.02
2017-01-31T03:32:04.230Z,1.91
2017-01-31T03:33:03.915Z,1.95
2017-01-31T03:34:03.711Z,1.94
2017-01-31T03:35:04.275Z,1.94
2017-01-31T03:36:03.567Z,2
2017-01-31T03:37:04.220Z,1.99
2017-01-31T03:38:04.351Z,2.02
2017-01-31T03:39:03.998Z,1.99
2017-01-31T03:40:03.452Z,1.97
2017-01-31T03:41:03.981Z,1.97
2017-01-31T03:42:04.596Z,1.95
2017-01-31T03:43:03.809Z,1.95
2017-01-31T03:44:04.176Z,1.95
2017-01-31T03:45:04.035Z,1.91
2017-01-31T03:46:04.686Z,1.89
2017-01-31T03:47:04.103Z,1.95
2017-01-31T03:48:05.500Z,1.94
2017-01-31T03:49:03.791Z,1.89
2017-01-31T03:50:04.662Z,1.94
2017-01-31T03:51:04.078Z,1.91
2017-01-31T03:52:03.450Z,1.92
2017-01-31T03:53:04.417Z,1.89
2017-01-31T03:54:03.414Z,1.94
2017-01-31T03:55:04.173Z,1.95
2017-01-31T03:56:04.246Z,1.91
2017-01-31T03:57:04.551Z,1.97
2017-01-31T03:58:04.041Z,1.99
2017-01-31T03:59:03.762Z,1.99
2017-01-31T04:00:05.228Z,1.97
2017-01-31T04:01:04.838Z,1.99
2017-01-31T04:02:04.350Z,1.92
2017-01-31T04:03:03.978Z,1.97
2017-01-31T04:04:04.186Z,1.97
2017-01-31T04:05:04.237Z,1.89
2017-01-31T04:06:04.224Z,1.94
2017-01-31T04:07:05.359Z,1.97
2017-01-31T04:08:04.179Z,2.06
2017-01-31T04:09:03.702Z,1.89
2017-01-31T04:10:04.910Z,1.95
2017-01-31T04:11:04.799Z,1.97
2017-01-31T04:12:04.319Z,1.89
2017-01-31T04:13:04.768Z,1.97
2017-01-31T04:14:04.648Z,1.97
2017-01-31T04:15:04.760Z,1.94
2017-01-31T04:16:04.808Z,1.88
2017-01-31T04:17:05.210Z,1.88
2017-01-31T04:18:04.744Z,1.94
2017-01-31T04:19:04.658Z,2.02
2017-01-31T04:20:04.755Z,1.97
2017-01-31T04:21:03.788Z,1.92
2017-01-31T04:22:04.794Z,1.94
2017-01-31T04:23:05.207Z,1.92
2017-01-31T04:24:04.328Z,1.92
2017-01-31T04:25:04.323Z,1.92
2017-01-31T04:26:05.272Z,1.91
2017-01-31T04:27:05.755Z,1.94
2017-01-31T04:28:04.129Z,1.92
2017-01-31T04:29:05.295Z,1.85
2017-01-31T04:30:05.576Z,1.84
2017-01-31T04:31:04.174Z,1.94
2017-01-31T04:32:05.038Z,1.87
2017-01-31T04:33:05.016Z,1.8
2017-01-31T04:34:05.405Z,1.91
2017-01-31T04:35:04.635Z,1.85
2017-01-31T04:36:05.461Z,1.91
2017-01-31T04:37:04.859Z,2
2017-01-31T04:38:05.035Z,1.91
2017-01-31T04:39:04.377Z,1.85
2017-01-31T04:40:05.101Z,2
2017-01-31T04:41:04.755Z,1.87
2017-01-31T04:42:04.938Z,1.94
2017-01-31T04:43:04.908Z,1.91
2017-01-31T04:44:04.355Z,1.95
2017-01-31T04:45:05.978Z,1.94
2017-01-31T04:46:05.308Z,1.99
2017-01-31T04:47:04.115Z,2.07
2017-01-31T04:48:04.989Z,1.92
2017-01-31T04:49:04.906Z,1.94
2017-01-31T04:50:05.463Z,1.94
2017-01-31T04:51:05.379Z,1.92
2017-01-31T04:52:05.091Z,1.95
2017-01-31T04:53:05.375Z,1.97
2017-01-31T04:54:04.786Z,1.99
2017-01-31T04:55:04.863Z,1.97
2017-01-31T04:56:04.927Z,1.97
2017-01-31T04:57:05.208Z,1.95
2017-01-31T04:58:04.339Z,1.92
2017-01-31T04:59:04.865Z,1.89
2017-01-31T05:00:04.554Z,1.91
2017-01-31T05:01:06.311Z,1.95
2017-01-31T05:02:05.913Z,1.97
2017-01-31T05:03:04.773Z,1.97
2017-01-31T05:04:05.465Z,1.92
2017-01-31T05:05:04.597Z,1.99
2017-01-31T05:06:05.132Z,1.91
2017-01-31T05:07:05.261Z,1.92
2017-01-31T05:08:04.980Z,1.94
2017-01-31T05:09:05.312Z,1.91
2017-01-31T05:10:05.770Z,1.94
2017-01-31T05:11:05.889Z,1.94
2017-01-31T05:12:05.575Z,1.95
2017-01-31T05:13:04.973Z,1.99
2017-01-31T05:14:05.624Z,1.92
2017-01-31T05:15:05.553Z,1.89
2017-01-31T05:16:03.934Z,1.87
2017-01-31T05:17:04.702Z,1.97
2017-01-31T05:18:05.931Z,1.84
2017-01-31T05:19:05.975Z,1.92
2017-01-31T05:20:05.554Z,1.91
2017-01-31T05:21:05.506Z,1.99
2017-01-31T05:22:05.671Z,1.84
2017-01-31T05:23:06.020Z,1.95
2017-01-31T05:24:06.100Z,1.84
2017-01-31T05:25:06.342Z,1.95
2017-01-31T05:26:05.491Z,1.88
2017-01-31T05:27:06.778Z,1.85
2017-01-31T05:28:06.308Z,1.88
2017-01-31T05:29:05.635Z,1.97
2017-01-31T05:30:06.058Z,1.87
2017-01-31T05:31:06.271Z,1.95
2017-01-31T05:32:06.276Z,1.91
2017-01-31T05:33:05.962Z,1.88
2017-01-31T05:34:05.591Z,1.84
2017-01-31T05:35:07.949Z,1.84
2017-01-31T05:36:06.005Z,1.87
2017-01-31T05:37:05.330Z,1.91
2017-01-31T05:38:06.783Z,1.94
2017-01-31T05:39:06.385Z,1.92
2017-01-31T05:40:06.345Z,1.89
2017-01-31T05:41:05.956Z,1.91
2017-01-31T05:42:06.047Z,1.99
2017-01-31T05:43:06.485Z,1.91
2017-01-31T05:44:06.305Z,1.97
2017-01-31T05:45:06.272Z,1.97
2017-01-31T05:46:06.000Z,2.02
2017-01-31T05:47:06.385Z,1.94
2017-01-31T05:48:06.396Z,2.04
2017-01-31T05:49:05.374Z,1.94
2017-01-31T05:50:06.696Z,1.94
2017-01-31T05:51:06.212Z,1.95
2017-01-31T05:52:06.634Z,1.94
2017-01-31T05:53:06.168Z,1.94
2017-01-31T05:54:07.990Z,1.95
2017-01-31T05:55:05.310Z,1.85
2017-01-31T05:56:05.551Z,1.92
2017-01-31T05:57:05.790Z,1.92
2017-01-31T05:58:05.568Z,1.97
2017-01-31T05:59:05.076Z,1.94
2017-01-31T06:00:05.748Z,1.94
2017-01-31T06:01:06.643Z,1.94
2017-01-31T06:02:07.577Z,1.92
2017-01-31T06:03:05.710Z,1.89
2017-01-31T06:04:06.709Z,2.04
2017-01-31T06:05:06.236Z,2
2017-01-31T06:06:06.176Z,1.94
2017-01-31T06:07:05.858Z,1.97
2017-01-31T06:08:05.690Z,1.95
2017-01-31T06:09:05.983Z,1.97
2017-01-31T06:10:06.900Z,1.99
2017-01-31T06:11:06.433Z,1.94
2017-01-31T06:12:06.594Z,1.91
2017-01-31T06:13:06.358Z,1.99
2017-01-31T06:14:05.812Z,1.94
2017-01-31T06:15:06.521Z,1.99
2017-01-31T06:16:07.605Z,1.95
2017-01-31T06:17:07.179Z,1.92
2017-01-31T06:18:05.890Z,1.92
2017-01-31T06:19:07.311Z,1.92
2017-01-31T06:20:06.290Z,1.95
2017-01-31T06:21:05.930Z,1.97
2017-01-31T06:22:05.063Z,1.95
2017-01-31T06:23:06.385Z,1.99
2017-01-31T06:24:07.636Z,1.97
2017-01-31T06:25:07.324Z,1.94
2017-01-31T06:26:06.079Z,1.92
2017-01-31T06:27:06.330Z,2.04
2017-01-31T06:28:09.053Z,1.94
2017-01-31T06:29:06.314Z,2.04
2017-01-31T06:30:06.318Z,2
2017-01-31T06:31:06.364Z,1.95
2017-01-31T06:32:05.926Z,1.89
2017-01-31T06:33:07.754Z,1.94
2017-01-31T06:34:07.274Z,1.94
2017-01-31T06:35:06.566Z,1.94
2017-01-31T06:36:05.717Z,1.97
2017-01-31T06:37:05.519Z,1.99
2017-01-31T06:38:07.222Z,1.92
2017-01-31T06:39:07.335Z,1.91
2017-01-31T06:40:06.283Z,1.85
2017-01-31T06:41:06.208Z,1.91
2017-01-31T06:42:06.899Z,1.85
2017-01-31T06:43:06.282Z,1.89
2017-01-31T06:44:06.497Z,1.85
2017-01-31T06:45:07.835Z,1.8
2017-01-31T06:46:06.404Z,1.84
2017-01-31T06:47:07.150Z,1.89
2017-01-31T06:48:05.855Z,1.84
2017-01-31T06:49:07.346Z,1.81
2017-01-31T06:50:06.171Z,1.85
2017-01-31T06:51:06.343Z,1.88
2017-01-31T06:52:06.220Z,1.87
2017-01-31T06:53:06.566Z,1.87
2017-01-31T06:54:07.729Z,1.87
2017-01-31T06:55:06.525Z,1.8
2017-01-31T06:56:06.549Z,1.84
2017-01-31T06:57:06.806Z,1.85
2017-01-31T06:58:07.056Z,1.89
2017-01-31T06:59:06.631Z,1.84
2017-01-31T07:00:06.130Z,1.89
2017-01-31T07:01:07.031Z,1.85
2017-01-31T07:02:06.378Z,1.8
2017-01-31T07:03:06.670Z,1.88
2017-01-31T07:04:06.067Z,1.84
2017-01-31T07:05:06.595Z,1.84
2017-01-31T07:06:06.033Z,1.77
2017-01-31T07:07:06.685Z,1.87
2017-01-31T07:08:06.323Z,1.77
2017-01-31T07:09:07.071Z,1.85
2017-01-31T07:10:07.603Z,1.89
2017-01-31T07:11:06.403Z,1.85
2017-01-31T07:12:09.040Z,1.89
2017-01-31T07:13:08.774Z,1.81
2017-01-31T07:14:12.371Z,1.85
2017-01-31T07:15:07.851Z,1.85
2017-01-31T07:16:06.829Z,1.85
2017-01-31T07:17:06.908Z,1.88
2017-01-31T07:18:07.441Z,1.89
2017-01-31T07:19:06.598Z,1.85
2017-01-31T07:20:06.997Z,1.88
2017-01-31T07:21:06.619Z,1.85
2017-01-31T07:22:07.324Z,1.88
2017-01-31T07:23:07.261Z,1.88
2017-01-31T07:24:07.923Z,1.91
2017-01-31T07:25:07.372Z,1.89
2017-01-31T07:26:06.435Z,1.95
2017-01-31T07:27:06.655Z,1.91
2017-01-31T07:28:06.856Z,1.89
2017-01-31T07:29:06.947Z,1.87
2017-01-31T07:30:06.907Z,1.89
2017-01-31T07:31:07.468Z,1.85
2017-01-31T07:32:07.381Z,1.84
2017-01-31T07:33:07.378Z,1.84
2017-01-31T07:34:06.881Z,1.89
2017-01-31T07:35:07.550Z,1.88
2017-01-31T07:36:07.513Z,1.89
2017-01-31T07:37:08.359Z,1.81
2017-01-31T07:38:06.827Z,1.87
2017-01-31T07:39:08.247Z,1.84
2017-01-31T07:40:07.440Z,1.88
2017-01-31T07:41:08.975Z,1.88
2017-01-31T07:42:06.866Z,1.84
2017-01-31T07:43:09.448Z,1.89
2017-01-31T07:44:06.770Z,1.92
2017-01-31T07:45:07.217Z,1.85
2017-01-31T07:46:07.717Z,1.97
2017-01-31T07:47:07.231Z,1.84
2017-01-31T07:48:07.359Z,1.92
2017-01-31T07:49:07.310Z,1.84
2017-01-31T07:50:08.120Z,1.91
2017-01-31T07:51:07.923Z,1.91
2017-01-31T07:52:07.742Z,1.99
2017-01-31T07:53:07.729Z,1.89
2017-01-31T07:54:07.483Z,1.91
2017-01-31T07:55:07.500Z,1.84
2017-01-31T07:56:07.516Z,1.87
2017-01-31T07:57:08.384Z,1.84
2017-01-31T07:58:07.818Z,1.84
2017-01-31T07:59:08.073Z,1.8
2017-01-31T08:00:07.827Z,1.89
2017-01-31T08:01:08.471Z,1.89
2017-01-31T08:02:09.789Z,1.88
2017-01-31T08:03:09.942Z,1.88
2017-01-31T08:05:10.149Z,1.97
2017-01-31T08:06:09.883Z,1.91
2017-01-31T08:07:09.002Z,1.89
2017-01-31T08:08:11.026Z,1.92
2017-01-31T08:09:09.395Z,1.91
2017-01-31T08:10:12.012Z,1.88
2017-01-31T08:11:09.512Z,1.85
2017-01-31T08:12:11.505Z,1.97
2017-01-31T08:13:13.361Z,1.97
2017-01-31T08:14:08.778Z,2.02
2017-01-31T08:15:10.496Z,1.99
2017-01-31T08:16:11.267Z,1.87
2017-01-31T08:17:09.644Z,1.91
2017-01-31T08:18:10.567Z,1.89
2017-01-31T08:19:09.413Z,1.99
2017-01-31T08:20:09.639Z,1.99
2017-01-31T08:21:11.050Z,1.95
2017-01-31T08:22:09.882Z,1.99
2017-01-31T08:23:11.077Z,2
2017-01-31T08:24:12.317Z,1.95
2017-01-31T08:25:10.187Z,1.97
2017-01-31T08:26:07.616Z,2.04
2017-01-31T08:27:07.327Z,2.02
2017-01-31T08:28:08.047Z,1.95
2017-01-31T08:29:07.070Z,2
2017-01-31T08:30:07.742Z,2
2017-01-31T08:31:07.228Z,2
2017-01-31T08:32:08.379Z,2.04
2017-01-31T08:33:08.697Z,2.07
2017-01-31T08:34:08.268Z,2.06
2017-01-31T08:35:08.026Z,2.1
2017-01-31T08:36:07.376Z,2.17
2017-01-31T08:37:07.910Z,2.1
2017-01-31T08:38:08.596Z,2.08
2017-01-31T08:39:09.390Z,2.14
2017-01-31T08:40:07.696Z,2.1
2017-01-31T08:41:07.245Z,2.14
2017-01-31T08:42:07.894Z,2.1
2017-01-31T08:43:08.292Z,2.18
2017-01-31T08:44:08.810Z,2.14
2017-01-31T08:45:08.366Z,2.15
2017-01-31T08:46:07.692Z,2.22
2017-01-31T08:47:07.871Z,2.2
2017-01-31T08:48:07.852Z,2.17
2017-01-31T10:03:01.825Z,1.88
2017-01-31T10:04:02.192Z,1.88
2017-01-31T10:05:02.712Z,1.91
2017-01-31T10:06:03.242Z,1.91
2017-01-31T10:07:03.760Z,1.88
2017-01-31T10:08:04.286Z,1.88
2017-01-31T10:09:04.812Z,1.90
2017-01-31T10:10:05.362Z,1.90
2017-01-31T10:11:05.871Z,1.92
2017-01-31T10:12:06.560Z,1.92
2017-01-31T10:13:07.068Z,1.97
2017-01-31T10:14:07.440Z,2.02
2017-01-31T10:15:07.973Z,2.04
2017-01-31T10:16:08.492Z,2.08
2017-01-31T10:17:09.015Z,2.09
2017-01-31T10:18:09.547Z,2.13
2017-01-31T10:19:10.102Z,2.17
2017-01-31T10:20:10.602Z,2.20
2017-01-31T10:21:11.117Z,2.19
2017-01-31T10:22:11.645Z,2.17
2017-01-31T10:23:12.167Z,2.17
2017-01-31T10:24:12.689Z,2.17
2017-01-31T10:25:13.210Z,2.20
2017-01-31T10:26:13.742Z,2.19
2017-01-31T10:27:14.261Z,2.21
2017-01-31T10:28:14.790Z,2.23
2017-01-31T10:29:15.326Z,2.24
2017-01-31T10:30:15.982Z,2.32
2017-01-31T10:31:16.359Z,2.31
2017-01-31T10:32:16.873Z,2.35
2017-01-31T10:33:17.395Z,2.40
2017-01-31T10:34:17.924Z,2.44
2017-01-31T10:35:18.451Z,2.43
2017-01-31T10:36:18.979Z,2.42
2017-01-31T10:37:19.508Z,2.38
2017-01-31T10:38:20.040Z,2.35
2017-01-31T10:39:20.569Z,2.35
2017-01-31T10:40:21.102Z,2.33
2017-01-31T10:41:21.639Z,2.35
2017-01-31T10:42:22.174Z,2.32
2017-01-31T10:43:22.708Z,2.35
2017-01-31T10:44:23.242Z,2.38
2017-01-31T10:45:23.775Z,2.36
2017-01-31T10:46:24.304Z,2.27
2017-01-31T10:47:24.984Z,2.26
2017-01-31T10:48:25.364Z,2.26
2017-01-31T10:49:25.899Z,2.27
2017-01-31T10:50:26.432Z,2.31
2017-01-31T10:51:27.013Z,2.33
2017-01-31T10:52:27.636Z,2.28
2017-01-31T10:53:28.023Z,2.32
2017-01-31T10:54:28.548Z,2.33
2017-01-31T10:55:29.078Z,2.33
2017-01-31T10:56:29.611Z,2.32
2017-01-31T10:57:30.287Z,2.31
2017-01-31T10:58:30.669Z,2.26
2017-01-31T10:59:31.203Z,2.24
2017-01-31T11:00:31.736Z,2.26
2017-01-31T11:01:32.258Z,2.27
2017-01-31T11:02:32.805Z,2.31
2017-01-31T11:03:33.478Z,2.31
2017-01-31T11:04:33.859Z,2.31
2017-01-31T11:05:34.536Z,2.31
2017-01-31T11:06:34.919Z,2.32
2017-01-31T11:07:35.588Z,2.31
2017-01-31T11:08:35.959Z,2.32
2017-01-31T11:09:36.492Z,2.33
2017-01-31T11:10:37.015Z,2.36
2017-01-31T11:11:37.539Z,2.36
2017-01-31T11:12:38.187Z,2.33
2017-01-31T11:13:38.704Z,2.36
2017-01-31T11:14:39.222Z,2.39
2017-01-31T11:15:39.592Z,2.39
2017-01-31T11:16:40.135Z,2.38
2017-01-31T11:17:40.632Z,2.36
2017-01-31T11:18:41.152Z,2.35
2017-01-31T11:19:41.675Z,2.36
2017-01-31T11:20:42.333Z,2.42
2017-01-31T11:21:42.715Z,2.44
2017-01-31T11:22:43.380Z,2.47
2017-01-31T11:23:43.767Z,2.50
2017-01-31T11:24:44.281Z,2.47
2017-01-31T11:25:44.949Z,2.51
2017-01-31T11:26:45.474Z,2.50
2017-01-31T11:27:45.992Z,2.46
2017-01-31T11:28:46.501Z,2.47
2017-01-31T11:29:46.887Z,2.43
2017-01-31T11:30:47.580Z,2.40
2017-01-31T11:31:48.213Z,2.43
2017-01-31T11:32:48.594Z,2.43
2017-01-31T11:33:49.119Z,2.42
2017-01-31T11:34:49.616Z,2.40
2017-01-31T11:35:50.143Z,2.39
2017-01-31T11:36:50.667Z,2.42
2017-01-31T11:37:51.038Z,2.43
2017-01-31T11:38:51.552Z,2.43
2017-01-31T11:39:52.220Z,2.47
2017-01-31T11:40:52.747Z,2.50
2017-01-31T11:41:53.128Z,2.51
2017-01-31T11:42:53.783Z,2.50
2017-01-31T11:43:54.294Z,2.47
2017-01-31T11:44:54.664Z,2.46
2017-01-31T11:45:55.190Z,2.43
2017-01-31T11:46:55.713Z,2.38
2017-01-31T11:47:56.226Z,2.32
2017-01-31T11:48:56.889Z,2.32
2017-01-31T11:49:57.408Z,2.31
2017-01-31T11:50:57.934Z,2.31
2017-01-31T11:51:58.302Z,2.27
2017-01-31T11:52:58.839Z,2.24
2017-01-31T11:53:59.503Z,2.23
2017-01-31T11:54:59.869Z,2.20
2017-01-31T11:56:00.527Z,2.19
2017-01-31T11:57:00.905Z,2.16
2017-01-31T11:58:01.565Z,2.15
2017-01-31T11:59:01.939Z,2.15
2017-01-31T12:00:02.468Z,2.17
2017-01-31T12:01:02.992Z,2.19
2017-01-31T12:02:03.650Z,2.19
2017-01-31T12:03:04.188Z,2.17
2017-01-31T12:04:04.540Z,2.19
2017-01-31T12:05:05.062Z,2.16
2017-01-31T12:06:05.587Z,2.15
2017-01-31T12:07:06.119Z,2.15
2017-01-31T12:08:06.640Z,2.12
2017-01-31T12:09:07.156Z,2.10
2017-01-31T12:10:07.822Z,2.10
2017-01-31T12:11:08.495Z,2.09
2017-01-31T12:12:08.722Z,2.08
2017-01-31T12:13:09.367Z,2.06
2017-01-31T12:14:09.749Z,2.08
2017-01-31T12:15:10.267Z,2.06
2017-01-31T12:16:10.932Z,2.04
2017-01-31T12:17:11.452Z,2.04
2017-01-31T12:18:11.975Z,2.04
2017-01-31T12:19:12.489Z,2.02
2017-01-31T12:20:13.015Z,2.04
2017-01-31T12:21:13.425Z,2.02
2017-01-31T12:22:14.050Z,2.01
2017-01-31T12:23:14.426Z,2.02
2017-01-31T12:24:14.936Z,2.05
2017-01-31T12:25:15.469Z,2.04
2017-01-31T12:26:16.132Z,2.05
2017-01-31T12:27:16.646Z,2.04
2017-01-31T12:28:17.016Z,2.04
2017-01-31T12:29:17.684Z,2.01
2017-01-31T12:30:18.207Z,2.02
2017-01-31T12:31:18.603Z,2.04
2017-01-31T12:32:19.112Z,2.05
2017-01-31T12:33:19.633Z,2.05
2017-01-31T12:34:20.158Z,2.04
2017-01-31T12:35:20.658Z,2.04
2017-01-31T12:36:21.328Z,2.04
2017-01-31T12:37:21.723Z,2.04
2017-01-31T12:38:22.364Z,2.02
2017-01-31T12:39:22.884Z,2.01
2017-01-31T12:40:23.405Z,2.02
2017-01-31T12:41:23.928Z,2.02
2017-01-31T12:42:24.446Z,2.01
2017-01-31T12:43:24.964Z,2.02
2017-01-31T12:44:25.490Z,2.01
2017-01-31T12:45:25.869Z,2.01
2017-01-31T12:46:26.386Z,1.98
2017-01-31T12:47:26.924Z,1.99
2017-01-31T12:48:27.573Z,2.01
2017-01-31T12:49:28.099Z,2.02
2017-01-31T12:50:28.634Z,2.04
2017-01-31T12:51:29.148Z,2.05
2017-01-31T12:52:29.511Z,2.06
2017-01-31T12:53:30.025Z,2.10
2017-01-31T12:54:30.547Z,2.12
2017-01-31T12:55:31.063Z,2.12
2017-01-31T12:56:31.604Z,2.13
2017-01-31T12:57:32.110Z,2.15
2017-01-31T12:58:32.628Z,2.16
2017-01-31T12:59:33.288Z,2.19
2017-01-31T13:00:33.805Z,2.19
2017-01-31T13:01:34.333Z,2.17
2017-01-31T13:02:34.843Z,2.17
2017-01-31T13:03:35.358Z,2.16
2017-01-31T13:04:35.740Z,2.17
2017-01-31T13:05:36.397Z,2.13
2017-01-31T13:06:36.773Z,2.13
2017-01-31T13:07:37.438Z,2.16
2017-01-31T13:08:37.826Z,2.20
2017-01-31T13:09:38.489Z,2.24
2017-01-31T13:10:38.856Z,2.28
2017-01-31T13:11:39.520Z,2.26
2017-01-31T13:12:40.042Z,2.23
2017-01-31T13:13:40.412Z,2.19
2017-01-31T13:14:40.955Z,2.20
2017-01-31T13:15:41.600Z,2.23
2017-01-31T13:16:42.125Z,2.24
2017-01-31T13:17:42.513Z,2.27
2017-01-31T13:18:43.163Z,2.27
2017-01-31T13:19:43.543Z,2.27
2017-01-31T13:20:44.205Z,2.24
2017-01-31T13:21:44.571Z,2.27
2017-01-31T13:22:45.244Z,2.32
2017-01-31T13:23:45.764Z,2.28
2017-01-31T13:24:46.149Z,2.31
2017-01-31T13:25:46.803Z,2.27
2017-01-31T13:26:47.332Z,2.28
2017-01-31T13:27:47.701Z,2.31
2017-01-31T13:28:48.369Z,2.28
2017-01-31T13:29:48.770Z,2.26
2017-01-31T13:30:49.567Z,2.24
2017-01-31T13:31:49.941Z,2.24
2017-01-31T13:32:50.460Z,2.27
2017-01-31T13:33:50.982Z,2.27
2017-01-31T13:34:51.355Z,2.28
2017-01-31T13:35:52.023Z,2.31
2017-01-31T13:36:52.395Z,2.31
2017-01-31T13:37:53.058Z,2.31
2017-01-31T13:38:53.454Z,2.31
2017-01-31T13:39:54.102Z,2.35
2017-01-31T13:40:54.622Z,2.33
2017-01-31T13:41:55.005Z,2.31
2017-01-31T13:42:55.510Z,2.32
2017-01-31T13:43:56.050Z,2.35
2017-01-31T13:44:56.701Z,2.35
2017-01-31T13:45:57.217Z,2.28
2017-01-31T13:46:57.598Z,2.31
2017-01-31T13:47:58.119Z,2.31
2017-01-31T13:48:58.641Z,2.31
2017-01-31T13:49:59.295Z,2.28
2017-01-31T13:50:59.842Z,2.31
2017-01-31T13:52:00.206Z,2.31
2017-01-31T13:53:00.861Z,2.27
2017-01-31T13:54:01.378Z,2.28
2017-01-31T13:55:01.897Z,2.28
2017-01-31T13:56:02.419Z,2.28
2017-01-31T13:57:02.790Z,2.27
2017-01-31T13:58:03.457Z,2.28
2017-01-31T13:59:03.847Z,2.33
2017-01-31T14:00:04.362Z,2.33
2017-01-31T14:01:04.879Z,2.36
2017-01-31T14:02:05.540Z,2.40
2017-01-31T14:03:05.919Z,2.42
2017-01-31T14:04:06.574Z,2.46
2017-01-31T14:05:07.103Z,2.47
2017-01-31T14:06:07.491Z,2.51
2017-01-31T14:07:07.999Z,2.52
2017-01-31T14:08:08.662Z,2.51
2017-01-31T14:09:09.043Z,2.54
2017-01-31T14:10:09.580Z,2.55
2017-01-31T14:11:10.241Z,2.58
2017-01-31T14:12:10.751Z,2.59
2017-01-31T14:13:11.148Z,2.55
2017-01-31T14:14:11.806Z,2.51
2017-01-31T14:15:12.175Z,2.50
2017-01-31T14:16:12.697Z,2.50
2017-01-31T14:17:13.348Z,2.47
2017-01-31T14:18:13.866Z,2.42
2017-01-31T14:19:14.254Z,2.43
2017-01-31T14:20:14.777Z,2.44
2017-01-31T14:21:15.424Z,2.50
2017-01-31T14:22:15.797Z,2.50
2017-01-31T14:23:16.329Z,2.46
2017-01-31T14:24:16.855Z,2.44
2017-01-31T14:25:17.510Z,2.44
2017-01-31T14:26:18.033Z,2.44
2017-01-31T14:27:18.416Z,2.43
2017-01-31T14:28:18.931Z,2.43
2017-01-31T14:29:19.433Z,2.46
2017-01-31T14:30:19.972Z,2.44
2017-01-31T14:31:20.487Z,2.42
2017-01-31T14:32:21.131Z,2.40
2017-01-31T14:33:21.528Z,2.38
2017-01-31T14:34:22.047Z,2.35
2017-01-31T14:35:22.702Z,2.33
2017-01-31T14:36:23.218Z,2.31
2017-01-31T14:37:23.736Z,2.28
2017-01-31T14:38:24.128Z,2.31